REV2FK EGBB-EGBE
Flight info
| Callsign | REV2FK |
|---|---|
| Flight time | N/A |
| Altitude | 10000 |
| Route | DTY BNN GROVE |
| Aircraft | BE20/L-SBGRY/S |
Departure
| Time | 2026-04-29 12:28 |
|---|---|
| Airport | Birmingham Airport (EGBB) |
Arrival
| Time | N/A |
|---|---|
| Airport | Coventry Airport (EGBE) |
| Time | Latitude | Longitude | Altitude | Speed | Heading |
|---|---|---|---|---|---|
| 2026-04-29 12:20 | 52.45150 | -1.75305 | 324 ft | 0 kts | 296° |
| 2026-04-29 12:24 | 52.45156 | -1.75318 | 322 ft | 4 kts | 314° |
| 2026-04-29 12:24 | 52.45195 | -1.75282 | 324 ft | 0 kts | 60° |
| 2026-04-29 12:24 | 52.45197 | -1.75274 | 324 ft | 3 kts | 69° |
| 2026-04-29 12:25 | 52.45204 | -1.75218 | 324 ft | 7 kts | 35° |
| 2026-04-29 12:25 | 52.45215 | -1.75145 | 323 ft | 9 kts | 133° |
| 2026-04-29 12:25 | 52.45180 | -1.74920 | 323 ft | 13 kts | 140° |
| 2026-04-29 12:26 | 52.45081 | -1.74812 | 324 ft | 14 kts | 149° |
| 2026-04-29 12:26 | 52.44994 | -1.74685 | 324 ft | 14 kts | 103° |
| 2026-04-29 12:26 | 52.44989 | -1.74646 | 324 ft | 0 kts | 100° |
| 2026-04-29 12:27 | 52.44989 | -1.74640 | 324 ft | 6 kts | 100° |
| 2026-04-29 12:27 | 52.44965 | -1.74438 | 323 ft | 16 kts | 89° |
| 2026-04-29 12:27 | 52.45098 | -1.74487 | 326 ft | 50 kts | 329° |
| 2026-04-29 12:28 | 52.45569 | -1.75004 | 320 ft | 110 kts | 327° |
| 2026-04-29 12:28 | 52.46282 | -1.75831 | 517 ft | 135 kts | 335° |
| 2026-04-29 12:28 | 52.47172 | -1.76769 | 649 ft | 169 kts | 339° |
| 2026-04-29 12:28 | 52.48148 | -1.77887 | 1097 ft | 166 kts | 329° |
| 2026-04-29 12:29 | 52.49100 | -1.78930 | 1590 ft | 164 kts | 336° |
| 2026-04-29 12:29 | 52.50112 | -1.79661 | 2043 ft | 155 kts | 359° |
| 2026-04-29 12:29 | 52.51148 | -1.79747 | 2464 ft | 145 kts | 17° |
| 2026-04-29 12:29 | 52.52097 | -1.79309 | 2904 ft | 139 kts | 34° |
| 2026-04-29 12:30 | 52.52885 | -1.78441 | 3334 ft | 135 kts | 51° |
| 2026-04-29 12:30 | 52.53461 | -1.77256 | 3794 ft | 131 kts | 66° |
| 2026-04-29 12:30 | 52.53786 | -1.75887 | 4291 ft | 128 kts | 81° |
| 2026-04-29 12:30 | 52.53860 | -1.74457 | 4778 ft | 125 kts | 96° |
| 2026-04-29 12:31 | 52.53709 | -1.73050 | 5249 ft | 125 kts | 102° |
| 2026-04-29 12:31 | 52.53534 | -1.71653 | 5615 ft | 127 kts | 102° |
| 2026-04-29 12:31 | 52.53354 | -1.70215 | 5981 ft | 130 kts | 102° |
| 2026-04-29 12:31 | 52.53167 | -1.68740 | 6323 ft | 134 kts | 102° |
| 2026-04-29 12:32 | 52.52965 | -1.67234 | 6680 ft | 136 kts | 105° |
| 2026-04-29 12:32 | 52.52577 | -1.65816 | 7012 ft | 139 kts | 126° |
| 2026-04-29 12:32 | 52.51807 | -1.64810 | 7368 ft | 144 kts | 141° |
| 2026-04-29 12:32 | 52.51009 | -1.63829 | 7741 ft | 143 kts | 134° |
| 2026-04-29 12:33 | 52.50277 | -1.62731 | 8131 ft | 143 kts | 131° |
| 2026-04-29 12:33 | 52.49554 | -1.61599 | 8528 ft | 144 kts | 131° |
| 2026-04-29 12:33 | 52.48833 | -1.60454 | 8910 ft | 145 kts | 131° |
| 2026-04-29 12:33 | 52.48108 | -1.59294 | 9279 ft | 146 kts | 131° |
| 2026-04-29 12:34 | 52.47382 | -1.58126 | 9668 ft | 146 kts | 131° |
| 2026-04-29 12:34 | 52.46652 | -1.56948 | 10036 ft | 148 kts | 131° |
| 2026-04-29 12:34 | 52.45848 | -1.55840 | 10278 ft | 159 kts | 142° |
| 2026-04-29 12:34 | 52.44847 | -1.54852 | 10302 ft | 176 kts | 144° |
| 2026-04-29 12:35 | 52.43762 | -1.53777 | 10314 ft | 188 kts | 144° |
| 2026-04-29 12:35 | 52.43005 | -1.53029 | 10314 ft | 194 kts | 144° |
| 2026-04-29 12:35 | 52.41421 | -1.51469 | 10310 ft | 201 kts | 144° |
| 2026-04-29 12:35 | 52.40209 | -1.50278 | 10312 ft | 205 kts | 145° |
| 2026-04-29 12:36 | 52.38980 | -1.49070 | 10312 ft | 207 kts | 145° |
| 2026-04-29 12:36 | 52.37741 | -1.47853 | 10309 ft | 209 kts | 144° |
| 2026-04-29 12:36 | 52.36523 | -1.46604 | 10367 ft | 209 kts | 140° |
| 2026-04-29 12:36 | 52.35458 | -1.45009 | 10372 ft | 207 kts | 129° |
| 2026-04-29 12:37 | 52.34525 | -1.43223 | 10372 ft | 206 kts | 127° |
| 2026-04-29 12:37 | 52.33606 | -1.41433 | 10378 ft | 206 kts | 127° |
| 2026-04-29 12:37 | 52.32684 | -1.39636 | 10383 ft | 206 kts | 127° |
| 2026-04-29 12:37 | 52.31764 | -1.37849 | 10385 ft | 205 kts | 127° |
| 2026-04-29 12:38 | 52.30846 | -1.36069 | 10389 ft | 205 kts | 127° |
| 2026-04-29 12:38 | 52.29928 | -1.34290 | 10391 ft | 206 kts | 128° |
| 2026-04-29 12:38 | 52.29304 | -1.33083 | 10399 ft | 206 kts | 127° |
| 2026-04-29 12:38 | 52.28377 | -1.31293 | 10401 ft | 207 kts | 128° |
| 2026-04-29 12:39 | 52.27447 | -1.29496 | 10406 ft | 208 kts | 128° |
| 2026-04-29 12:39 | 52.26513 | -1.27695 | 10404 ft | 208 kts | 128° |
| 2026-04-29 12:39 | 52.25575 | -1.25888 | 10401 ft | 208 kts | 128° |
| 2026-04-29 12:39 | 52.24652 | -1.24110 | 10400 ft | 208 kts | 128° |
| 2026-04-29 12:40 | 52.23713 | -1.22303 | 10395 ft | 208 kts | 128° |
| 2026-04-29 12:40 | 52.22776 | -1.20502 | 10390 ft | 208 kts | 128° |
| 2026-04-29 12:40 | 52.21844 | -1.18711 | 10385 ft | 206 kts | 128° |
| 2026-04-29 12:40 | 52.20915 | -1.16927 | 10385 ft | 206 kts | 128° |
| 2026-04-29 12:41 | 52.19985 | -1.15141 | 10382 ft | 207 kts | 128° |
| 2026-04-29 12:41 | 52.19052 | -1.13352 | 10381 ft | 207 kts | 128° |
| 2026-04-29 12:41 | 52.18076 | -1.11637 | 10375 ft | 208 kts | 136° |
| 2026-04-29 12:41 | 52.16870 | -1.10312 | 10370 ft | 210 kts | 148° |
| 2026-04-29 12:42 | 52.15590 | -1.09155 | 10367 ft | 210 kts | 146° |
| 2026-04-29 12:42 | 52.14329 | -1.07935 | 10366 ft | 211 kts | 146° |
| 2026-04-29 12:42 | 52.13067 | -1.06712 | 10364 ft | 211 kts | 145° |
| 2026-04-29 12:42 | 52.11801 | -1.05491 | 10364 ft | 212 kts | 145° |
| 2026-04-29 12:43 | 52.10545 | -1.04287 | 10350 ft | 212 kts | 146° |
| 2026-04-29 12:43 | 52.09272 | -1.03073 | 10341 ft | 212 kts | 145° |
| 2026-04-29 12:43 | 52.08007 | -1.01872 | 10332 ft | 210 kts | 145° |
| 2026-04-29 12:43 | 52.06749 | -1.00681 | 10338 ft | 209 kts | 145° |
| 2026-04-29 12:44 | 52.05489 | -0.99490 | 10334 ft | 209 kts | 146° |
| 2026-04-29 12:44 | 52.04228 | -0.98296 | 10326 ft | 210 kts | 146° |
| 2026-04-29 12:44 | 52.02960 | -0.97099 | 10296 ft | 211 kts | 146° |
| 2026-04-29 12:44 | 52.01692 | -0.95901 | 10295 ft | 211 kts | 146° |
| 2026-04-29 12:45 | 52.00421 | -0.94703 | 10300 ft | 211 kts | 145° |
| 2026-04-29 12:45 | 51.99153 | -0.93508 | 10294 ft | 210 kts | 145° |
| 2026-04-29 12:45 | 51.97891 | -0.92321 | 10290 ft | 209 kts | 145° |
| 2026-04-29 12:45 | 51.96632 | -0.91138 | 10296 ft | 209 kts | 145° |
| 2026-04-29 12:46 | 51.95372 | -0.89954 | 10298 ft | 209 kts | 146° |
| 2026-04-29 12:46 | 51.94107 | -0.88764 | 10299 ft | 210 kts | 146° |
| 2026-04-29 12:46 | 51.92837 | -0.87571 | 10303 ft | 211 kts | 146° |
| 2026-04-29 12:46 | 51.91564 | -0.86376 | 10303 ft | 211 kts | 146° |
| 2026-04-29 12:47 | 51.90313 | -0.85203 | 10298 ft | 210 kts | 145° |
| 2026-04-29 12:47 | 51.89032 | -0.84005 | 10294 ft | 210 kts | 145° |
| 2026-04-29 12:47 | 51.87769 | -0.82822 | 10298 ft | 210 kts | 146° |
| 2026-04-29 12:47 | 51.86499 | -0.81632 | 10299 ft | 212 kts | 146° |
| 2026-04-29 12:48 | 51.85243 | -0.80456 | 10296 ft | 212 kts | 146° |
| 2026-04-29 12:48 | 51.83964 | -0.79260 | 10298 ft | 213 kts | 146° |
| 2026-04-29 12:48 | 51.82683 | -0.78065 | 10298 ft | 212 kts | 146° |
| 2026-04-29 12:48 | 51.81407 | -0.76874 | 10297 ft | 212 kts | 146° |
| 2026-04-29 12:49 | 51.80134 | -0.75688 | 10301 ft | 211 kts | 145° |
| 2026-04-29 12:49 | 51.78862 | -0.74502 | 10299 ft | 211 kts | 146° |
| 2026-04-29 12:49 | 51.77587 | -0.73315 | 10302 ft | 212 kts | 146° |
| 2026-04-29 12:49 | 51.76306 | -0.72122 | 10305 ft | 213 kts | 145° |
| 2026-04-29 12:50 | 51.75019 | -0.70923 | 10303 ft | 214 kts | 146° |
| 2026-04-29 12:50 | 51.73728 | -0.69722 | 10299 ft | 215 kts | 146° |
| 2026-04-29 12:50 | 51.72436 | -0.68522 | 10268 ft | 215 kts | 146° |
| 2026-04-29 12:50 | 51.71142 | -0.67321 | 10266 ft | 214 kts | 146° |
| 2026-04-29 12:51 | 51.69854 | -0.66126 | 10267 ft | 214 kts | 146° |
| 2026-04-29 12:51 | 51.68565 | -0.64932 | 10266 ft | 214 kts | 146° |
| 2026-04-29 12:51 | 51.67275 | -0.63737 | 10265 ft | 214 kts | 146° |
| 2026-04-29 12:51 | 51.65987 | -0.62545 | 10264 ft | 214 kts | 146° |
| 2026-04-29 12:52 | 51.64699 | -0.61353 | 10266 ft | 213 kts | 145° |
| 2026-04-29 12:52 | 51.63414 | -0.60165 | 10262 ft | 213 kts | 146° |
| 2026-04-29 12:52 | 51.62132 | -0.58980 | 10260 ft | 213 kts | 145° |
| 2026-04-29 12:52 | 51.60850 | -0.57797 | 10258 ft | 212 kts | 145° |
| 2026-04-29 12:53 | 51.59573 | -0.56619 | 10262 ft | 212 kts | 146° |
| 2026-04-29 12:53 | 51.58296 | -0.55440 | 10264 ft | 212 kts | 146° |
| 2026-04-29 12:53 | 51.57014 | -0.54257 | 10269 ft | 213 kts | 146° |
| 2026-04-29 12:53 | 51.55730 | -0.53075 | 10268 ft | 213 kts | 146° |
| 2026-04-29 12:54 | 51.54452 | -0.51899 | 10260 ft | 206 kts | 146° |
| 2026-04-29 12:54 | 51.53250 | -0.50803 | 10253 ft | 192 kts | 145° |
| 2026-04-29 12:54 | 51.52127 | -0.49779 | 10258 ft | 181 kts | 145° |
| 2026-04-29 12:54 | 51.51059 | -0.48802 | 10255 ft | 173 kts | 144° |
| 2026-04-29 12:55 | 51.50034 | -0.47858 | 10256 ft | 166 kts | 143° |
| 2026-04-29 12:55 | 51.49208 | -0.46688 | 10257 ft | 158 kts | 123° |
| 2026-04-29 12:55 | 51.48768 | -0.45106 | 10262 ft | 156 kts | 103° |
| 2026-04-29 12:55 | 51.48681 | -0.43417 | 10093 ft | 156 kts | 93° |
| 2026-04-29 12:56 | 51.48656 | -0.41682 | 10245 ft | 160 kts | 95° |
| 2026-04-29 12:56 | 51.48641 | -0.39894 | 10325 ft | 162 kts | 95° |
| 2026-04-29 12:56 | 51.48627 | -0.38057 | 10373 ft | 167 kts | 95° |
| 2026-04-29 12:56 | 51.48610 | -0.36244 | 10354 ft | 169 kts | 94° |
| 2026-04-29 12:57 | 51.48594 | -0.34346 | 10277 ft | 169 kts | 94° |
| 2026-04-29 12:57 | 51.48574 | -0.32479 | 10268 ft | 165 kts | 94° |
| 2026-04-29 12:57 | 51.48554 | -0.30652 | 10262 ft | 162 kts | 94° |
| 2026-04-29 12:57 | 51.48533 | -0.28856 | 10262 ft | 160 kts | 95° |
| 2026-04-29 12:58 | 51.48512 | -0.27089 | 10259 ft | 157 kts | 94° |
| 2026-04-29 12:58 | 51.48490 | -0.25338 | 10262 ft | 156 kts | 94° |
| 2026-04-29 12:58 | 51.48468 | -0.23597 | 10263 ft | 156 kts | 94° |
| 2026-04-29 12:58 | 51.48446 | -0.21879 | 10275 ft | 156 kts | 95° |
| 2026-04-29 12:59 | 51.48422 | -0.20123 | 10282 ft | 158 kts | 95° |
| 2026-04-29 12:59 | 51.48398 | -0.18355 | 10276 ft | 159 kts | 95° |
| 2026-04-29 12:59 | 51.48374 | -0.16574 | 10269 ft | 160 kts | 95° |
| 2026-04-29 12:59 | 51.48349 | -0.14789 | 10259 ft | 160 kts | 95° |
| 2026-04-29 13:00 | 51.48325 | -0.13010 | 10255 ft | 159 kts | 95° |
| 2026-04-29 13:00 | 51.48301 | -0.11247 | 10254 ft | 157 kts | 95° |
| 2026-04-29 13:00 | 51.48278 | -0.09503 | 10257 ft | 155 kts | 95° |
| 2026-04-29 13:00 | 51.48254 | -0.07798 | 10260 ft | 155 kts | 95° |
| 2026-04-29 13:01 | 51.48230 | -0.06080 | 10264 ft | 154 kts | 95° |
| 2026-04-29 13:01 | 51.48205 | -0.04356 | 10269 ft | 155 kts | 95° |
| 2026-04-29 13:01 | 51.48180 | -0.02629 | 10273 ft | 155 kts | 94° |
| 2026-04-29 13:01 | 51.48154 | -0.00894 | 10274 ft | 156 kts | 95° |
| 2026-04-29 13:02 | 51.48128 | 0.00845 | 10286 ft | 156 kts | 94° |
| 2026-04-29 13:02 | 51.48101 | 0.02585 | 10286 ft | 156 kts | 94° |
| 2026-04-29 13:02 | 51.48074 | 0.04335 | 10280 ft | 157 kts | 94° |
| 2026-04-29 13:02 | 51.48048 | 0.06080 | 10283 ft | 156 kts | 94° |
| 2026-04-29 13:03 | 51.48022 | 0.07811 | 10282 ft | 154 kts | 94° |
| 2026-04-29 13:03 | 51.47995 | 0.09530 | 10287 ft | 153 kts | 94° |
| 2026-04-29 13:03 | 51.47968 | 0.11246 | 10288 ft | 154 kts | 94° |
| 2026-04-29 13:03 | 51.47941 | 0.12964 | 10286 ft | 154 kts | 94° |
| 2026-04-29 13:04 | 51.47913 | 0.14687 | 10292 ft | 154 kts | 95° |
| 2026-04-29 13:04 | 51.47884 | 0.16413 | 10286 ft | 154 kts | 95° |
| 2026-04-29 13:04 | 51.47870 | 0.18125 | 10288 ft | 153 kts | 89° |
| 2026-04-29 13:04 | 51.48334 | 0.19654 | 10290 ft | 166 kts | 49° |
| 2026-04-29 13:05 | 51.49468 | 0.20277 | 10290 ft | 188 kts | 4° |
| 2026-04-29 13:05 | 51.50663 | 0.19305 | 10292 ft | 206 kts | 310° |
| 2026-04-29 13:05 | 51.51151 | 0.17153 | 10295 ft | 207 kts | 272° |
| 2026-04-29 13:05 | 51.51111 | 0.14856 | 10290 ft | 206 kts | 261° |
| 2026-04-29 13:06 | 51.50940 | 0.12574 | 10285 ft | 206 kts | 258° |
| 2026-04-29 13:06 | 51.50782 | 0.10288 | 10282 ft | 207 kts | 261° |
| 2026-04-29 13:06 | 51.50677 | 0.07985 | 10285 ft | 207 kts | 264° |
| 2026-04-29 13:06 | 51.50623 | 0.05669 | 10286 ft | 208 kts | 264° |
| 2026-04-29 13:07 | 51.50606 | 0.03332 | 10289 ft | 210 kts | 266° |
| 2026-04-29 13:07 | 51.50614 | 0.00985 | 10289 ft | 210 kts | 266° |
| 2026-04-29 13:07 | 51.50635 | -0.01359 | 10277 ft | 211 kts | 267° |
| 2026-04-29 13:07 | 51.50662 | -0.03697 | 10292 ft | 214 kts | 267° |
| 2026-04-29 13:08 | 51.50694 | -0.06140 | 10293 ft | 219 kts | 267° |
| 2026-04-29 13:08 | 51.50728 | -0.08570 | 10270 ft | 221 kts | 267° |
| 2026-04-29 13:08 | 51.50763 | -0.11030 | 10245 ft | 220 kts | 268° |
| 2026-04-29 13:08 | 51.50799 | -0.13466 | 10241 ft | 217 kts | 267° |
| 2026-04-29 13:09 | 51.50830 | -0.15858 | 10240 ft | 211 kts | 267° |
| 2026-04-29 13:09 | 51.50848 | -0.18171 | 10242 ft | 204 kts | 266° |
| 2026-04-29 13:09 | 51.50859 | -0.20423 | 10248 ft | 199 kts | 266° |
| 2026-04-29 13:09 | 51.50879 | -0.22622 | 10255 ft | 195 kts | 266° |
| 2026-04-29 13:10 | 51.50901 | -0.24778 | 10260 ft | 192 kts | 266° |
| 2026-04-29 13:10 | 51.50924 | -0.26907 | 10261 ft | 190 kts | 266° |
| 2026-04-29 13:10 | 51.50947 | -0.29012 | 10260 ft | 188 kts | 266° |
| 2026-04-29 13:10 | 51.50969 | -0.31104 | 10261 ft | 186 kts | 266° |
| 2026-04-29 13:11 | 51.50992 | -0.33179 | 10265 ft | 185 kts | 266° |
| 2026-04-29 13:11 | 51.51013 | -0.35252 | 10269 ft | 186 kts | 266° |
| 2026-04-29 13:11 | 51.51036 | -0.37336 | 10279 ft | 188 kts | 265° |
| 2026-04-29 13:11 | 51.51060 | -0.39420 | 10280 ft | 190 kts | 266° |
| 2026-04-29 13:12 | 51.51085 | -0.41545 | 10264 ft | 190 kts | 267° |
| 2026-04-29 13:12 | 51.51108 | -0.43662 | 10247 ft | 189 kts | 266° |
| 2026-04-29 13:12 | 51.51280 | -0.45741 | 10244 ft | 189 kts | 288° |
| 2026-04-29 13:12 | 51.51924 | -0.47564 | 10249 ft | 187 kts | 314° |
| 2026-04-29 13:13 | 51.52927 | -0.48820 | 10258 ft | 180 kts | 340° |
| 2026-04-29 13:13 | 51.54093 | -0.49307 | 10259 ft | 168 kts | 7° |
| 2026-04-29 13:13 | 51.55193 | -0.48991 | 10260 ft | 155 kts | 34° |
| 2026-04-29 13:13 | 51.56009 | -0.48005 | 10262 ft | 141 kts | 62° |
| 2026-04-29 13:14 | 51.56380 | -0.46634 | 10262 ft | 130 kts | 89° |
| 2026-04-29 13:14 | 51.56247 | -0.45241 | 10265 ft | 127 kts | 115° |
| 2026-04-29 13:14 | 51.55759 | -0.44047 | 10263 ft | 129 kts | 126° |
| 2026-04-29 13:14 | 51.55179 | -0.42947 | 10258 ft | 129 kts | 126° |
| 2026-04-29 13:15 | 51.54663 | -0.41770 | 10255 ft | 129 kts | 118° |
| 2026-04-29 13:15 | 51.54283 | -0.40498 | 10258 ft | 128 kts | 110° |
| 2026-04-29 13:15 | 51.54022 | -0.39133 | 10257 ft | 128 kts | 104° |
| 2026-04-29 13:15 | 51.53859 | -0.37730 | 10257 ft | 128 kts | 100° |
| 2026-04-29 13:16 | 51.53762 | -0.36314 | 10262 ft | 128 kts | 98° |
| 2026-04-29 13:16 | 51.53704 | -0.34884 | 10261 ft | 128 kts | 96° |
| 2026-04-29 13:16 | 51.53666 | -0.33449 | 10260 ft | 128 kts | 95° |
| 2026-04-29 13:16 | 51.53641 | -0.32009 | 10260 ft | 129 kts | 95° |
| 2026-04-29 13:17 | 51.53620 | -0.30573 | 10260 ft | 129 kts | 94° |
| 2026-04-29 13:17 | 51.53601 | -0.29152 | 10263 ft | 129 kts | 95° |
| 2026-04-29 13:17 | 51.53583 | -0.27718 | 10261 ft | 128 kts | 95° |
| 2026-04-29 13:17 | 51.53565 | -0.26282 | 10259 ft | 129 kts | 95° |
| 2026-04-29 13:18 | 51.53548 | -0.24848 | 10257 ft | 128 kts | 95° |
| 2026-04-29 13:18 | 51.53530 | -0.23414 | 10257 ft | 128 kts | 95° |
| 2026-04-29 13:18 | 51.53512 | -0.21982 | 10260 ft | 128 kts | 95° |
| 2026-04-29 13:18 | 51.53493 | -0.20549 | 10269 ft | 128 kts | 95° |
| 2026-04-29 13:19 | 51.53474 | -0.19108 | 10276 ft | 130 kts | 95° |
| 2026-04-29 13:19 | 51.53453 | -0.17645 | 10272 ft | 131 kts | 95° |
| 2026-04-29 13:19 | 51.53432 | -0.16166 | 10262 ft | 133 kts | 95° |
| 2026-04-29 13:19 | 51.53410 | -0.14681 | 10261 ft | 132 kts | 95° |
| 2026-04-29 13:20 | 51.53391 | -0.13206 | 10261 ft | 132 kts | 95° |
| 2026-04-29 13:20 | 51.53370 | -0.11733 | 10258 ft | 132 kts | 95° |
| 2026-04-29 13:20 | 51.53350 | -0.10264 | 10259 ft | 131 kts | 94° |
| 2026-04-29 13:20 | 51.53330 | -0.08796 | 10261 ft | 131 kts | 95° |
| 2026-04-29 13:21 | 51.53311 | -0.07329 | 10363 ft | 131 kts | 94° |
| 2026-04-29 13:21 | 51.53290 | -0.05870 | 10363 ft | 130 kts | 95° |
| 2026-04-29 13:21 | 51.53269 | -0.04413 | 10358 ft | 130 kts | 95° |
| 2026-04-29 13:21 | 51.53249 | -0.02963 | 10352 ft | 130 kts | 95° |
| 2026-04-29 13:22 | 51.53228 | -0.01520 | 10351 ft | 129 kts | 95° |
| 2026-04-29 13:22 | 51.53207 | -0.00075 | 10343 ft | 129 kts | 94° |
| 2026-04-29 13:22 | 51.53186 | 0.01368 | 10279 ft | 129 kts | 94° |
| 2026-04-29 13:22 | 51.53164 | 0.02806 | 10284 ft | 128 kts | 95° |
| 2026-04-29 13:23 | 51.53140 | 0.04241 | 10289 ft | 128 kts | 95° |
| 2026-04-29 13:23 | 51.53118 | 0.05668 | 10289 ft | 127 kts | 94° |
| 2026-04-29 13:23 | 51.53098 | 0.07073 | 10291 ft | 128 kts | 94° |
| 2026-04-29 13:23 | 51.53075 | 0.08500 | 10290 ft | 129 kts | 94° |
| 2026-04-29 13:24 | 51.53053 | 0.09943 | 10288 ft | 129 kts | 94° |
| 2026-04-29 13:24 | 51.53030 | 0.11381 | 10291 ft | 129 kts | 94° |
| 2026-04-29 13:24 | 51.53007 | 0.12826 | 10292 ft | 129 kts | 94° |
| 2026-04-29 13:24 | 51.52983 | 0.14270 | 10288 ft | 129 kts | 94° |
| 2026-04-29 13:25 | 51.52959 | 0.15715 | 10289 ft | 129 kts | 95° |
| 2026-04-29 13:25 | 51.52942 | 0.18634 | 10291 ft | 133 kts | 83° |
| 2026-04-29 13:25 | 51.53371 | 0.19983 | 10292 ft | 143 kts | 54° |
| 2026-04-29 13:26 | 51.54269 | 0.20820 | 10293 ft | 159 kts | 25° |
| 2026-04-29 13:26 | 51.55014 | 0.20940 | 10283 ft | 168 kts | 3° |
| 2026-04-29 13:26 | 51.56160 | 0.20365 | 10286 ft | 179 kts | 334° |
| 2026-04-29 13:26 | 51.57075 | 0.18966 | 10288 ft | 186 kts | 304° |
| 2026-04-29 13:27 | 51.57531 | 0.17038 | 10287 ft | 185 kts | 274° |
| 2026-04-29 13:27 | 51.57427 | 0.15033 | 10289 ft | 178 kts | 244° |
| 2026-04-29 13:27 | 51.56931 | 0.13241 | 10284 ft | 174 kts | 236° |
| 2026-04-29 13:27 | 51.56416 | 0.11468 | 10281 ft | 177 kts | 240° |
| 2026-04-29 13:28 | 51.56015 | 0.09577 | 10281 ft | 180 kts | 249° |
| 2026-04-29 13:28 | 51.55762 | 0.07602 | 10282 ft | 182 kts | 255° |
| 2026-04-29 13:28 | 51.55607 | 0.05568 | 10284 ft | 184 kts | 257° |
| 2026-04-29 13:28 | 51.55476 | 0.03530 | 10293 ft | 185 kts | 263° |
| 2026-04-29 13:29 | 51.55378 | 0.01470 | 10287 ft | 185 kts | 257° |
| 2026-04-29 13:29 | 51.55211 | -0.00589 | 10359 ft | 192 kts | 257° |
| 2026-04-29 13:29 | 51.55000 | -0.02838 | 10378 ft | 214 kts | 257° |
| 2026-04-29 13:29 | 51.54743 | -0.05288 | 10385 ft | 230 kts | 256° |
| 2026-04-29 13:30 | 51.54464 | -0.07877 | 10379 ft | 240 kts | 255° |
| 2026-04-29 13:30 | 51.54167 | -0.10548 | 10376 ft | 245 kts | 256° |
| 2026-04-29 13:30 | 51.53855 | -0.13261 | 10258 ft | 249 kts | 256° |
| 2026-04-29 13:30 | 51.53543 | -0.16018 | 10255 ft | 251 kts | 256° |
| 2026-04-29 13:31 | 51.53241 | -0.18792 | 10255 ft | 253 kts | 260° |
| 2026-04-29 13:31 | 51.53250 | -0.21638 | 10257 ft | 257 kts | 275° |
| 2026-04-29 13:31 | 51.53542 | -0.24486 | 10254 ft | 259 kts | 279° |
| 2026-04-29 13:31 | 51.53913 | -0.27324 | 10255 ft | 260 kts | 281° |
| 2026-04-29 13:32 | 51.54306 | -0.30164 | 10257 ft | 262 kts | 281° |
| 2026-04-29 13:32 | 51.54710 | -0.33013 | 10255 ft | 261 kts | 282° |
| 2026-04-29 13:32 | 51.55108 | -0.35815 | 10263 ft | 260 kts | 282° |